Aviation Digital Data Service (ADDS)

Output produced by METARs form (0020 UTC 02 October 2014)
found at http://www.aviationweather.gov/adds/metars/
 
KLNS 012353Z 30004KT 9SM BKN048 OVC100 18/14 A3004 RMK AO2 SLP172 T01830144 10228 20178 53010
KLNS 012349Z 0200/0224 00000KT P6SM BKN040 
     FM020600 00000KT 3SM BR OVC030 
     FM021300 VRB03KT P6SM BKN050